Time;durP1;ratioP1;P1;durP2;ratioP2;P2;SDS_P1;SDS_P2;PMS_P1;PMS_P2;Temp;Humidity;BMP_temperature;BMP_pressure;BME280_temperature;BME280_humidity;BME280_pressure;Samples;Min_cycle;Max_cycle;Signal;HPM_P1;HPM_P2
2023/08/24 00:02:18;;;;;;;;;;;;;;;-144.99;nan;52325.81;5006814;28;19959;-69
2023/08/24 00:04:44;;;;;;;;;;;;;;;-144.99;nan;52280.97;5010971;28;20048;-68
2023/08/24 00:07:11;;;;;;;;;;;;;;;-144.99;nan;52268.72;5008080;28;20338;-69
2023/08/24 00:09:37;;;;;;;;;;;;;;;-144.99;nan;52266.69;5011830;28;20043;-69
2023/08/24 00:12:06;;;;;;;;;;;;;;;-144.99;nan;52244.28;5007367;28;21426;-69
2023/08/24 00:14:33;;;;;;;;;;;;;;;-144.99;nan;52309.50;5005823;28;20048;-69
2023/08/24 00:17:00;;;;;;;;;;;;;;;-144.99;nan;52293.19;5005961;28;19993;-68
2023/08/24 00:19:27;;;;;;;;;;;;;;;-144.99;nan;52280.97;5004499;28;19999;-69
2023/08/24 00:21:53;;;;;;;;;;;;;;;-144.99;nan;52230.00;5002751;28;19967;-68
2023/08/24 00:24:20;;;;;;;;;;;;;;;-144.99;nan;52276.88;5007345;28;19983;-62
2023/08/24 00:26:46;;;;;;;;;;;;;;;-144.99;nan;52252.44;5008832;28;20011;-66
2023/08/24 00:29:13;;;;;;;;;;;;;;;-144.99;nan;52293.19;5002338;28;20007;-67
2023/08/24 00:31:39;;;;;;;;;;;;;;;-144.99;nan;52276.88;5008877;28;20002;-66
2023/08/24 00:34:07;;;;;;;;;;;;;;;-144.99;nan;52285.03;5003305;28;20294;-65
2023/08/24 00:36:34;;;;;;;;;;;;;;;-144.99;nan;52256.50;5002734;28;19998;-66
2023/08/24 00:39:00;;;;;;;;;;;;;;;-144.99;nan;52299.31;5008483;28;20383;-67
2023/08/24 00:41:27;;;;;;;;;;;;;;;-144.99;nan;52301.34;5000130;28;20043;-67
2023/08/24 00:43:53;;;;;;;;;;;;;;;-144.99;nan;52268.72;5006215;28;20012;-67
2023/08/24 00:46:20;;;;;;;;;;;;;;;-144.99;nan;52260.56;5008908;28;20475;-67
2023/08/24 00:48:47;;;;;;;;;;;;;;;-144.99;nan;52268.72;5009155;28;20028;-67
2023/08/24 00:51:15;;;;;;;;;;;;;;;-144.99;nan;52293.19;5008635;28;19987;-68
2023/08/24 00:53:42;;;;;;;;;;;;;;;-144.99;nan;52321.72;5007509;28;19972;-68
2023/08/24 00:56:08;;;;;;;;;;;;;;;-144.99;nan;52289.13;5008459;28;19967;-66
2023/08/24 00:58:35;;;;;;;;;;;;;;;-144.99;nan;52285.03;5010455;28;20023;-67
2023/08/24 01:01:01;;;;;;;;;;;;;;;-144.99;nan;52266.69;5004135;28;20044;-67
2023/08/24 01:03:28;;;;;;;;;;;;;;;-144.99;nan;52338.03;4997994;28;19967;-67
2023/08/24 01:05:54;;;;;;;;;;;;;;;-144.99;nan;52278.91;5001081;28;19944;-67
2023/08/24 01:08:23;;;;;;;;;;;;;;;-144.99;nan;52297.25;4997242;28;19993;-67
2023/08/24 01:10:58;;;;;;;;;;;;;;;-144.99;nan;52287.06;5008938;28;20449;-67
2023/08/24 01:13:29;;;;;;;;;;;;;;;-144.99;nan;52309.50;5010629;28;20327;-67
2023/08/24 01:15:59;;;;;;;;;;;;;;;-144.99;nan;52307.47;5008124;28;19989;-66
2023/08/24 01:18:27;;;;;;;;;;;;;;;-144.99;nan;52276.88;4999708;28;19946;-68
2023/08/24 01:20:54;;;;;;;;;;;;;;;-144.99;nan;52289.13;5007022;28;19960;-68
2023/08/24 01:23:33;;;;;;;;;;;;;;;-144.99;nan;52319.69;5011731;28;19966;-68
2023/08/24 01:26:04;;;;;;;;;;;;;;;-144.99;nan;52301.34;5017893;28;20009;-68
2023/08/24 01:28:31;;;;;;;;;;;;;;;-144.99;nan;52317.66;5013605;28;20031;-66
2023/08/24 01:30:58;;;;;;;;;;;;;;;-144.99;nan;52301.34;5012878;28;20089;-65
2023/08/24 01:33:25;;;;;;;;;;;;;;;-144.99;nan;52268.72;5014051;28;19999;-66
2023/08/24 01:35:51;;;;;;;;;;;;;;;-144.99;nan;52325.81;5011054;28;19950;-65
2023/08/24 01:38:18;;;;;;;;;;;;;;;-144.99;nan;52336.00;5005187;28;20382;-64
2023/08/24 01:40:49;;;;;;;;;;;;;;;-144.99;nan;52317.66;5010135;28;20007;-63
2023/08/24 01:43:19;;;;;;;;;;;;;;;-144.99;nan;52321.72;5010893;28;20345;-63
2023/08/24 01:45:46;;;;;;;;;;;;;;;-144.99;nan;52303.38;5012065;28;19989;-64
2023/08/24 01:48:13;;;;;;;;;;;;;;;-144.99;nan;52293.19;5010806;28;20038;-63
2023/08/24 01:50:41;;;;;;;;;;;;;;;-144.99;nan;52317.66;5014843;28;20360;-64
2023/08/24 01:53:07;;;;;;;;;;;;;;;-144.99;nan;52297.25;5012636;28;20035;-67
2023/08/24 01:55:34;;;;;;;;;;;;;;;-144.99;nan;52297.25;5011357;28;20009;-64
2023/08/24 01:58:00;;;;;;;;;;;;;;;-144.99;nan;52317.66;5013707;28;19973;-64
2023/08/24 02:00:28;;;;;;;;;;;;;;;-144.99;nan;52321.72;5007656;28;19966;-64
2023/08/24 02:02:55;;;;;;;;;;;;;;;-144.99;nan;52317.66;5009935;28;20007;-65
2023/08/24 02:05:21;;;;;;;;;;;;;;;-144.99;nan;52317.66;5011811;28;19946;-62
2023/08/24 02:07:48;;;;;;;;;;;;;;;-144.99;nan;52350.25;5014187;28;19949;-62
2023/08/24 02:10:14;;;;;;;;;;;;;;;-144.99;nan;52305.41;5008897;28;20454;-62
2023/08/24 02:12:41;;;;;;;;;;;;;;;-144.99;nan;52305.41;5009613;28;19976;-63
2023/08/24 02:15:08;;;;;;;;;;;;;;;-144.99;nan;52313.56;5008480;28;20062;-61
2023/08/24 02:17:35;;;;;;;;;;;;;;;-144.99;nan;52336.00;5000974;28;20023;-63
2023/08/24 02:20:03;;;;;;;;;;;;;;;-144.99;nan;52287.06;5006516;28;20008;-62
2023/08/24 02:22:29;;;;;;;;;;;;;;;-144.99;nan;52346.19;4997063;28;19992;-64
2023/08/24 02:24:56;;;;;;;;;;;;;;;-144.99;nan;52309.50;5010079;28;19945;-62
2023/08/24 02:27:22;;;;;;;;;;;;;;;-144.99;nan;52301.34;5004977;28;20062;-63
2023/08/24 02:29:49;;;;;;;;;;;;;;;-144.99;nan;52321.72;5006611;28;19980;-63
2023/08/24 02:32:15;;;;;;;;;;;;;;;-144.99;nan;52305.41;5006457;28;20063;-63
2023/08/24 02:34:43;;;;;;;;;;;;;;;-144.99;nan;52329.88;5004889;28;19956;-65
2023/08/24 02:37:10;;;;;;;;;;;;;;;-144.99;nan;52358.41;5000802;28;19967;-62
2023/08/24 02:39:36;;;;;;;;;;;;;;;-144.99;nan;52309.50;5010539;28;19948;-62
2023/08/24 02:42:03;;;;;;;;;;;;;;;-144.99;nan;52333.94;5010992;28;20257;-62
2023/08/24 02:44:31;;;;;;;;;;;;;;;-144.99;nan;52309.50;5007107;28;20001;-62
2023/08/24 02:46:57;;;;;;;;;;;;;;;-144.99;nan;52309.50;5009934;28;19957;-71
2023/08/24 02:49:24;;;;;;;;;;;;;;;-144.99;nan;52295.22;5009672;28;19998;-71
2023/08/24 02:51:52;;;;;;;;;;;;;;;-144.99;nan;52293.19;5009430;28;19989;-71
2023/08/24 02:54:18;;;;;;;;;;;;;;;-144.99;nan;52256.50;5004970;28;20206;-71
2023/08/24 02:56:45;;;;;;;;;;;;;;;-144.99;nan;52289.13;5005547;28;19980;-66
2023/08/24 02:59:12;;;;;;;;;;;;;;;-144.99;nan;52340.06;5007973;28;19989;-66
2023/08/24 03:01:41;;;;;;;;;;;;;;;-144.99;nan;52317.66;5009205;28;19964;-66
2023/08/24 03:04:07;;;;;;;;;;;;;;;-144.99;nan;52309.50;5008435;28;19954;-63
2023/08/24 03:06:34;;;;;;;;;;;;;;;-144.99;nan;52305.41;5007744;28;20324;-64
2023/08/24 03:09:03;;;;;;;;;;;;;;;-144.99;nan;52319.69;5003657;28;19947;-64
2023/08/24 03:11:30;;;;;;;;;;;;;;;-144.99;nan;52382.88;5010342;28;20027;-64
2023/08/24 03:13:56;;;;;;;;;;;;;;;-144.99;nan;52317.66;5006539;28;19950;-64
2023/08/24 03:16:23;;;;;;;;;;;;;;;-144.99;nan;52311.53;5006342;28;19958;-64
2023/08/24 03:21:17;;;;;;;;;;;;;;;-144.99;nan;52346.19;5027201;28;20386;-63
2023/08/24 03:23:43;;;;;;;;;;;;;;;-144.99;nan;52313.56;5052558;28;20002;-63
2023/08/24 03:26:11;;;;;;;;;;;;;;;-144.99;nan;52333.94;5049899;28;19948;-62
2023/08/24 03:28:38;;;;;;;;;;;;;;;-144.99;nan;52333.94;5052390;28;19980;-68
2023/08/24 03:31:04;;;;;;;;;;;;;;;-144.99;nan;52289.13;5049474;28;20052;-67
2023/08/24 03:33:33;;;;;;;;;;;;;;;-144.99;nan;52309.50;5049113;28;19996;-69
2023/08/24 03:35:59;;;;;;;;;;;;;;;-144.99;nan;52313.56;5051567;28;20400;-69
2023/08/24 03:38:26;;;;;;;;;;;;;;;-144.99;nan;52315.59;5049174;28;20394;-67
2023/08/24 03:40:53;;;;;;;;;;;;;;;-144.99;nan;52301.34;5051356;28;20440;-68
2023/08/24 03:43:20;;;;;;;;;;;;;;;-144.99;nan;52301.34;5049854;28;20019;-68
2023/08/24 03:45:47;;;;;;;;;;;;;;;-144.99;nan;52313.56;5042947;28;20055;-68
2023/08/24 03:48:14;;;;;;;;;;;;;;;-144.99;nan;52313.56;5048909;28;20036;-68
2023/08/24 03:50:40;;;;;;;;;;;;;;;-144.99;nan;52301.34;5051165;28;20018;-68
2023/08/24 03:53:07;;;;;;;;;;;;;;;-144.99;nan;52309.50;5049484;28;20055;-67
2023/08/24 03:55:34;;;;;;;;;;;;;;;-144.99;nan;52342.09;5052286;28;19952;-67
2023/08/24 03:58:00;;;;;;;;;;;;;;;-144.99;nan;52289.13;5053343;28;19956;-67
2023/08/24 04:00:28;;;;;;;;;;;;;;;-144.99;nan;52321.72;5047702;28;20021;-67
2023/08/24 04:02:54;;;;;;;;;;;;;;;-144.99;nan;52350.25;5049826;28;20068;-67
2023/08/24 04:05:21;;;;;;;;;;;;;;;-144.99;nan;52325.81;5048154;28;20048;-67
2023/08/24 04:07:47;;;;;;;;;;;;;;;-144.99;nan;52315.59;5053982;28;20042;-66
2023/08/24 04:10:14;;;;;;;;;;;;;;;-144.99;nan;52309.50;5049051;28;20067;-66
2023/08/24 04:12:40;;;;;;;;;;;;;;;-144.99;nan;52348.22;5055388;28;20099;-66
2023/08/24 04:15:07;;;;;;;;;;;;;;;-144.99;nan;52342.09;5071901;28;19937;-74
2023/08/24 04:17:35;;;;;;;;;;;;;;;-144.99;nan;52293.19;5045249;28;20296;-74
2023/08/24 04:20:02;;;;;;;;;;;;;;;-144.99;nan;52301.34;5036489;28;20039;-75
2023/08/24 04:22:28;;;;;;;;;;;;;;;-144.99;nan;52336.00;5050537;28;20502;-75
2023/08/24 04:24:55;;;;;;;;;;;;;;;-144.99;nan;52333.94;5047373;28;19947;-74
2023/08/24 04:27:21;;;;;;;;;;;;;;;-144.99;nan;52329.88;5048505;28;20075;-74
2023/08/24 04:29:48;;;;;;;;;;;;;;;-144.99;nan;52329.88;5050232;28;19947;-74
2023/08/24 04:32:15;;;;;;;;;;;;;;;-144.99;nan;52309.50;5050791;28;20016;-75
2023/08/24 04:34:43;;;;;;;;;;;;;;;-144.99;nan;52289.13;5048996;28;20003;-76
2023/08/24 04:37:09;;;;;;;;;;;;;;;-144.99;nan;52272.81;5048650;28;20424;-75
2023/08/24 04:39:36;;;;;;;;;;;;;;;-144.99;nan;52311.53;5051646;28;20003;-74
2023/08/24 04:42:03;;;;;;;;;;;;;;;-144.99;nan;52321.72;5047732;28;20436;-74
2023/08/24 04:44:29;;;;;;;;;;;;;;;-144.99;nan;52276.88;5041980;28;20043;-73
2023/08/24 04:46:56;;;;;;;;;;;;;;;-144.99;nan;52362.50;5050894;28;20351;-73
2023/08/24 04:49:22;;;;;;;;;;;;;;;-144.99;nan;52301.34;5050928;28;19952;-74
2023/08/24 04:51:50;;;;;;;;;;;;;;;-144.99;nan;52321.72;5039437;28;20499;-73
2023/08/24 04:54:17;;;;;;;;;;;;;;;-144.99;nan;52268.72;5051436;28;19951;-73
2023/08/24 04:56:43;;;;;;;;;;;;;;;-144.99;nan;52354.34;5050246;28;20024;-73
2023/08/24 04:59:10;;;;;;;;;;;;;;;-144.99;nan;52297.25;5043372;28;19961;-73
2023/08/24 05:01:37;;;;;;;;;;;;;;;-144.99;nan;52315.59;5048956;28;19968;-73
2023/08/24 05:04:03;;;;;;;;;;;;;;;-144.99;nan;52313.56;5046059;28;19955;-73
2023/08/24 05:06:30;;;;;;;;;;;;;;;-144.99;nan;52301.34;5044024;28;19990;-73
2023/08/24 05:08:57;;;;;;;;;;;;;;;-144.99;nan;52289.13;5044057;28;20001;-72
2023/08/24 05:11:26;;;;;;;;;;;;;;;-144.99;nan;52315.59;5047052;28;19950;-73
2023/08/24 05:13:52;;;;;;;;;;;;;;;-144.99;nan;52329.88;5051478;28;19955;-73
2023/08/24 05:16:19;;;;;;;;;;;;;;;-144.99;nan;52309.50;5050894;28;19999;-73
2023/08/24 05:18:46;;;;;;;;;;;;;;;-144.99;nan;52338.03;5050415;28;19947;-73
2023/08/24 05:21:12;;;;;;;;;;;;;;;-144.99;nan;52305.41;5045076;28;20143;-73
2023/08/24 05:23:38;;;;;;;;;;;;;;;-144.99;nan;52293.19;5044014;28;19969;-73
2023/08/24 05:26:06;;;;;;;;;;;;;;;-144.99;nan;52309.50;5049396;28;19948;-73
2023/08/24 05:28:33;;;;;;;;;;;;;;;-144.99;nan;52313.56;5044548;28;20039;-73
2023/08/24 05:31:00;;;;;;;;;;;;;;;-144.99;nan;52313.56;5048354;28;19985;-73
2023/08/24 05:33:27;;;;;;;;;;;;;;;-144.99;nan;52309.50;5044438;28;20007;-73
2023/08/24 05:35:53;;;;;;;;;;;;;;;-144.99;nan;52293.19;5043318;28;19950;-73
2023/08/24 05:38:20;;;;;;;;;;;;;;;-144.99;nan;52285.03;5045682;28;20004;-74
2023/08/24 05:40:48;;;;;;;;;;;;;;;-144.99;nan;52329.88;5049236;28;20021;-73
2023/08/24 05:43:16;;;;;;;;;;;;;;;-144.99;nan;52289.13;5046720;28;19995;-74
2023/08/24 05:45:44;;;;;;;;;;;;;;;-144.99;nan;52285.03;5048616;28;19952;-73
2023/08/24 05:48:11;;;;;;;;;;;;;;;-144.99;nan;52285.03;5048022;28;20277;-73
2023/08/24 05:50:38;;;;;;;;;;;;;;;-144.99;nan;52285.03;5047766;28;19950;-73
2023/08/24 05:53:04;;;;;;;;;;;;;;;-144.99;nan;52305.41;5047317;28;19973;-73
2023/08/24 05:55:31;;;;;;;;;;;;;;;-144.99;nan;52293.19;5048419;28;19961;-73
2023/08/24 05:57:58;;;;;;;;;;;;;;;-144.99;nan;52260.56;5043697;28;20415;-73
2023/08/24 06:00:25;;;;;;;;;;;;;;;-144.99;nan;52305.41;5041772;28;20154;-73
2023/08/24 06:02:52;;;;;;;;;;;;;;;-144.99;nan;52270.78;5049666;28;19970;-73
2023/08/24 06:05:19;;;;;;;;;;;;;;;-144.99;nan;52270.78;5045869;28;19991;-73
2023/08/24 06:07:45;;;;;;;;;;;;;;;-144.99;nan;52252.44;5049723;28;19952;-74
2023/08/24 06:10:12;;;;;;;;;;;;;;;-144.99;nan;52276.88;5050830;28;19948;-74
2023/08/24 06:12:39;;;;;;;;;;;;;;;-144.99;nan;52246.31;5052507;28;20013;-74
2023/08/24 06:15:09;;;;;;;;;;;;;;;-144.99;nan;52256.50;5053282;28;19951;-74
2023/08/24 06:17:37;;;;;;;;;;;;;;;-144.99;nan;52264.66;5054000;28;19949;-74
2023/08/24 06:20:04;;;;;;;;;;;;;;;-144.99;nan;52303.38;5046558;28;19948;-74
2023/08/24 06:22:31;;;;;;;;;;;;;;;-144.99;nan;52256.50;5051933;28;20466;-74
2023/08/24 06:24:59;;;;;;;;;;;;;;;-144.99;nan;52264.66;5051709;28;19987;-74
2023/08/24 06:27:26;;;;;;;;;;;;;;;-144.99;nan;52211.66;5051059;28;19944;-74
2023/08/24 06:29:52;;;;;;;;;;;;;;;-144.99;nan;52248.34;5048200;28;19942;-74
2023/08/24 06:32:19;;;;;;;;;;;;;;;-144.99;nan;52256.50;5051750;28;20053;-74
2023/08/24 06:34:46;;;;;;;;;;;;;;;-144.99;nan;52250.38;5052081;28;20460;-74
2023/08/24 06:37:13;;;;;;;;;;;;;;;-144.99;nan;52285.03;5049072;28;19994;-74
2023/08/24 06:39:39;;;;;;;;;;;;;;;-144.99;nan;52268.72;5045165;28;20348;-74
2023/08/24 06:42:06;;;;;;;;;;;;;;;-144.99;nan;52276.88;5050845;28;19961;-75
2023/08/24 06:44:33;;;;;;;;;;;;;;;-144.99;nan;52217.78;5048172;28;19990;-74
2023/08/24 06:47:00;;;;;;;;;;;;;;;-144.99;nan;52260.56;5048389;28;20443;-73
2023/08/24 06:49:26;;;;;;;;;;;;;;;-144.99;nan;52252.44;5050882;28;19998;-73
2023/08/24 06:51:54;;;;;;;;;;;;;;;-144.99;nan;52256.50;5051843;28;20374;-73
2023/08/24 06:54:22;;;;;;;;;;;;;;;-144.99;nan;52264.66;5047471;28;19947;-73
2023/08/24 06:56:49;;;;;;;;;;;;;;;-144.99;nan;52232.03;5044928;28;19943;-73
2023/08/24 06:59:15;;;;;;;;;;;;;;;-144.99;nan;52264.66;5050380;28;19944;-73
2023/08/24 07:01:42;;;;;;;;;;;;;;;-144.99;nan;52215.75;5051577;28;20003;-74
2023/08/24 07:04:08;;;;;;;;;;;;;;;-144.99;nan;52236.13;5035657;28;19946;-74
2023/08/24 07:06:35;;;;;;;;;;;;;;;-144.99;nan;52219.81;5045876;28;19980;-73
2023/08/24 07:09:06;;;;;;;;;;;;;;;-144.99;nan;52244.28;5041066;28;19949;-74
2023/08/24 07:11:32;;;;;;;;;;;;;;;-144.99;nan;52215.75;5042191;28;20002;-73
2023/08/24 07:13:59;;;;;;;;;;;;;;;-144.99;nan;52264.66;5047748;28;19945;-75
2023/08/24 07:16:25;;;;;;;;;;;;;;;-144.99;nan;52260.56;5051293;28;20458;-73
2023/08/24 07:18:52;;;;;;;;;;;;;;;-144.99;nan;52236.13;5050166;28;20040;-73
2023/08/24 07:21:18;;;;;;;;;;;;;;;-144.99;nan;52227.97;5049182;28;19966;-73
2023/08/24 07:23:45;;;;;;;;;;;;;;;-144.99;nan;52230.00;5048746;28;20331;-75
2023/08/24 07:26:13;;;;;;;;;;;;;;;-144.99;nan;52236.13;5049670;28;20064;-73
2023/08/24 07:28:39;;;;;;;;;;;;;;;-144.99;nan;52232.03;5046802;28;19983;-73
2023/08/24 07:31:10;;;;;;;;;;;;;;;-144.99;nan;52223.88;5050554;28;20008;-74
2023/08/24 07:33:37;;;;;;;;;;;;;;;-144.99;nan;52215.75;5040748;28;20022;-74
2023/08/24 07:36:04;;;;;;;;;;;;;;;-144.99;nan;52211.66;5047460;28;19941;-74
2023/08/24 07:38:30;;;;;;;;;;;;;;;-144.99;nan;52211.66;5050804;28;20046;-74
2023/08/24 07:40:57;;;;;;;;;;;;;;;-144.99;nan;52211.66;5050488;28;20435;-74
2023/08/24 07:43:25;;;;;;;;;;;;;;;-144.99;nan;52207.59;5050260;28;21227;-75
2023/08/24 07:45:52;;;;;;;;;;;;;;;-144.99;nan;52227.97;5048522;28;19983;-74
2023/08/24 07:48:18;;;;;;;;;;;;;;;-144.99;nan;52207.59;5050776;28;20372;-74
2023/08/24 07:50:45;;;;;;;;;;;;;;;-144.99;nan;52223.88;5049132;28;19949;-75
2023/08/24 07:53:11;;;;;;;;;;;;;;;-144.99;nan;52236.13;5050271;28;19958;-77
2023/08/24 07:55:38;;;;;;;;;;;;;;;-144.99;nan;52223.88;5051232;28;20046;-75
2023/08/24 07:58:04;;;;;;;;;;;;;;;-144.99;nan;52166.81;5047767;28;19996;-76
2023/08/24 08:00:32;;;;;;;;;;;;;;;-144.99;nan;52187.19;5065361;28;19959;-76
2023/08/24 08:02:59;;;;;;;;;;;;;;;-144.99;nan;52211.66;5066645;28;19982;-76
2023/08/24 08:05:26;;;;;;;;;;;;;;;-144.99;nan;52187.19;5049699;28;19987;-75
2023/08/24 08:07:53;;;;;;;;;;;;;;;-144.99;nan;52195.34;5050825;28;19976;-77
2023/08/24 08:10:21;;;;;;;;;;;;;;;-144.99;nan;52199.44;5050950;28;19959;-76
2023/08/24 08:12:47;;;;;;;;;;;;;;;-144.99;nan;52232.03;5045486;28;19972;-75
2023/08/24 08:15:14;;;;;;;;;;;;;;;-144.99;nan;52227.97;5045643;28;20044;-75
2023/08/24 08:17:42;;;;;;;;;;;;;;;-144.99;nan;52219.81;5049940;28;19941;-76
2023/08/24 08:20:11;;;;;;;;;;;;;;;-144.99;nan;52199.44;5046563;28;20047;-75
2023/08/24 08:22:38;;;;;;;;;;;;;;;-144.99;nan;52232.03;5050433;28;20441;-75
2023/08/24 08:25:06;;;;;;;;;;;;;;;-144.99;nan;52219.81;5038239;28;19953;-76
2023/08/24 08:27:33;;;;;;;;;;;;;;;-144.99;nan;52207.59;5049769;28;20048;-76
2023/08/24 08:29:59;;;;;;;;;;;;;;;-144.99;nan;52195.34;5049294;28;19953;-76
2023/08/24 08:32:27;;;;;;;;;;;;;;;-144.99;nan;52223.88;5045935;28;20019;-75
2023/08/24 08:34:56;;;;;;;;;;;;;;;-144.99;nan;52203.50;5048443;28;19962;-76
2023/08/24 08:37:23;;;;;;;;;;;;;;;-144.99;nan;52166.81;5048415;28;19944;-75
2023/08/24 08:39:49;;;;;;;;;;;;;;;-144.99;nan;52225.94;5049694;28;20045;-76
2023/08/24 08:42:16;;;;;;;;;;;;;;;-144.99;nan;52183.13;5049013;28;19973;-75
2023/08/24 08:44:44;;;;;;;;;;;;;;;-144.99;nan;52183.13;5047462;28;20462;-76
2023/08/24 08:47:11;;;;;;;;;;;;;;;-144.99;nan;52219.81;5049771;28;19995;-75
2023/08/24 08:49:39;;;;;;;;;;;;;;;-144.99;nan;52179.06;5047799;28;20365;-75
2023/08/24 08:52:07;;;;;;;;;;;;;;;-144.99;nan;52199.44;5044035;28;20034;-76
2023/08/24 08:54:34;;;;;;;;;;;;;;;-144.99;nan;52197.41;5045482;28;20008;-75
2023/08/24 08:57:01;;;;;;;;;;;;;;;-144.99;nan;52179.06;5049409;28;20002;-76
2023/08/24 08:59:30;;;;;;;;;;;;;;;-144.99;nan;52187.19;5045321;28;19996;-75
2023/08/24 09:01:57;;;;;;;;;;;;;;;-144.99;nan;52219.81;5046366;28;20384;-75
2023/08/24 09:04:24;;;;;;;;;;;;;;;-144.99;nan;52174.97;5044936;28;19951;-76
2023/08/24 09:06:51;;;;;;;;;;;;;;;-144.99;nan;52187.19;5046187;28;20008;-76
2023/08/24 09:09:19;;;;;;;;;;;;;;;-144.99;nan;52158.66;5047610;28;20358;-76
2023/08/24 09:11:47;;;;;;;;;;;;;;;-144.99;nan;52142.38;5041963;28;19962;-76
2023/08/24 09:14:13;;;;;;;;;;;;;;;-144.99;nan;52211.66;5046457;28;20613;-76
2023/08/24 09:16:40;;;;;;;;;;;;;;;-144.99;nan;52183.13;5049320;28;19969;-76
2023/08/24 09:19:07;;;;;;;;;;;;;;;-144.99;nan;52191.28;5048526;28;20051;-76
2023/08/24 09:21:37;;;;;;;;;;;;;;;-144.99;nan;52195.34;5028311;22;19960;-73
2023/08/24 09:24:03;;;;;;;;;;;;;;;-144.99;nan;52158.66;5007516;28;19945;-73
2023/08/24 09:26:33;;;;;;;;;;;;;;;-144.99;nan;52195.34;5008154;28;20364;-73
2023/08/24 09:29:00;;;;;;;;;;;;;;;-144.99;nan;52164.78;5008168;28;20317;-72
2023/08/24 09:31:36;;;;;;;;;;;;;;;-144.99;nan;52138.28;5007908;28;19986;-75
2023/08/24 09:34:03;;;;;;;;;;;;;;;-144.99;nan;52142.38;5007766;28;19952;-72
2023/08/24 09:36:31;;;;;;;;;;;;;;;-144.99;nan;52126.06;5000357;28;19952;-73
2023/08/24 09:38:59;;;;;;;;;;;;;;;-144.99;nan;52134.22;5008547;28;20437;-72
2023/08/24 09:41:37;;;;;;;;;;;;;;;-144.99;nan;52097.53;5008017;28;19944;-74
2023/08/24 09:44:05;;;;;;;;;;;;;;;-144.99;nan;52099.56;5007679;28;20271;-76
2023/08/24 09:46:32;;;;;;;;;;;;;;;-144.99;nan;52093.44;5004405;28;20092;-74
2023/08/24 09:49:00;;;;;;;;;;;;;;;-144.99;nan;52117.91;5011625;28;20050;-75
2023/08/24 09:51:27;;;;;;;;;;;;;;;-144.99;nan;52183.13;5011532;28;20070;-74
2023/08/24 09:53:57;;;;;;;;;;;;;;;-144.99;nan;52138.28;5011682;28;20381;-74
2023/08/24 09:56:26;;;;;;;;;;;;;;;-144.99;nan;52177.00;5012116;28;19998;-76
2023/08/24 09:58:54;;;;;;;;;;;;;;;-144.99;nan;52150.53;5010779;28;19942;-74
2023/08/24 10:01:22;;;;;;;;;;;;;;;-144.99;nan;52203.50;5012087;28;19980;-74
2023/08/24 10:03:51;;;;;;;;;;;;;;;-144.99;nan;52156.63;5011484;28;19962;-75
2023/08/24 10:06:20;;;;;;;;;;;;;;;-144.99;nan;52146.44;5012062;28;19975;-74
2023/08/24 10:08:49;;;;;;;;;;;;;;;-144.99;nan;52109.75;5012534;28;20005;-74
2023/08/24 10:11:18;;;;;;;;;;;;;;;-144.99;nan;52093.44;5011815;28;20036;-74
2023/08/24 10:13:49;;;;;;;;;;;;;;;-144.99;nan;52113.84;5011427;28;20158;-75
2023/08/24 10:16:18;;;;;;;;;;;;;;;-144.99;nan;52095.50;5011879;28;20039;-73
2023/08/24 10:18:46;;;;;;;;;;;;;;;-144.99;nan;52091.41;5011772;28;20000;-77
2023/08/24 10:21:13;;;;;;;;;;;;;;;-144.99;nan;52093.44;5011731;28;20467;-75
2023/08/24 10:23:40;;;;;;;;;;;;;;;-144.99;nan;52040.47;5012082;28;20433;-76
2023/08/24 10:26:07;;;;;;;;;;;;;;;-144.99;nan;52056.78;5005543;28;20382;-75
2023/08/24 10:28:34;;;;;;;;;;;;;;;-144.99;nan;52064.91;5012098;28;20045;-74
2023/08/24 10:31:01;;;;;;;;;;;;;;;-144.99;nan;52040.47;5011574;28;20303;-75
2023/08/24 10:33:28;;;;;;;;;;;;;;;-144.99;nan;52034.34;5011664;28;19969;-73
2023/08/24 10:35:56;;;;;;;;;;;;;;;-144.99;nan;52032.31;5011494;28;20000;-75
2023/08/24 10:38:26;;;;;;;;;;;;;;;-144.99;nan;52001.75;5011819;28;19989;-77
2023/08/24 10:40:54;;;;;;;;;;;;;;;-144.99;nan;51983.41;5011462;28;19946;-77
2023/08/24 10:43:20;;;;;;;;;;;;;;;-144.99;nan;52024.16;5010948;28;19968;-74
2023/08/24 10:45:57;;;;;;;;;;;;;;;-144.99;nan;51991.56;5011133;28;19947;-74
2023/08/24 10:48:24;;;;;;;;;;;;;;;-144.99;nan;51963.03;5011280;28;20324;-75
2023/08/24 10:51:09;;;;;;;;;;;;;;;-144.99;nan;51973.22;5011278;28;20389;-74
2023/08/24 10:53:40;;;;;;;;;;;;;;;-144.99;nan;51938.56;5006341;28;19963;-74
2023/08/24 10:56:11;;;;;;;;;;;;;;;-144.99;nan;51934.50;5010636;28;20004;-74
2023/08/24 10:58:37;;;;;;;;;;;;;;;-144.99;nan;51936.53;5011196;28;20033;-74
2023/08/24 11:01:04;;;;;;;;;;;;;;;-144.99;nan;51958.94;5010605;28;20054;-73
2023/08/24 11:03:33;;;;;;;;;;;;;;;-144.99;nan;51954.88;5006577;28;20022;-74
2023/08/24 11:06:00;;;;;;;;;;;;;;;-144.99;nan;51979.31;5010168;28;20015;-74
2023/08/24 11:08:41;;;;;;;;;;;;;;;-144.99;nan;51946.72;5010735;28;20059;-74
2023/08/24 11:11:19;;;;;;;;;;;;;;;-144.99;nan;51950.78;5009913;28;19949;-74
2023/08/24 11:14:00;;;;;;;;;;;;;;;-144.99;nan;52003.78;5009364;28;20005;-74
2023/08/24 11:16:42;;;;;;;;;;;;;;;-144.99;nan;51958.94;5009616;28;19985;-75
2023/08/24 11:19:09;;;;;;;;;;;;;;;-144.99;nan;51983.41;5009807;28;20482;-74
2023/08/24 11:21:36;;;;;;;;;;;;;;;-144.99;nan;52003.78;5009991;28;20459;-74
2023/08/24 11:24:03;;;;;;;;;;;;;;;-144.99;nan;51948.75;5009603;28;20414;-74
2023/08/24 11:26:31;;;;;;;;;;;;;;;-144.99;nan;51926.34;5009754;28;20326;-75
2023/08/24 11:28:58;;;;;;;;;;;;;;;-144.99;nan;51942.63;5009658;28;20280;-74
2023/08/24 11:31:25;;;;;;;;;;;;;;;-144.99;nan;51905.97;5009997;28;20338;-74
2023/08/24 11:33:55;;;;;;;;;;;;;;;-144.99;nan;51910.03;5009855;28;19947;-74
2023/08/24 11:36:23;;;;;;;;;;;;;;;-144.99;nan;51910.03;5010618;28;20352;-73
2023/08/24 11:38:49;;;;;;;;;;;;;;;-144.99;nan;51905.97;5010076;28;19945;-73
2023/08/24 11:41:17;;;;;;;;;;;;;;;-144.99;nan;51893.72;5007904;28;19943;-74
2023/08/24 11:43:45;;;;;;;;;;;;;;;-144.99;nan;51934.50;5009145;28;19964;-75
2023/08/24 11:46:11;;;;;;;;;;;;;;;-144.99;nan;51958.94;5009258;28;20002;-75
2023/08/24 11:48:39;;;;;;;;;;;;;;;-144.99;nan;51958.94;5009409;28;19980;-74
2023/08/24 11:51:08;;;;;;;;;;;;;;;-144.99;nan;51963.03;5009018;28;19958;-75
2023/08/24 11:53:37;;;;;;;;;;;;;;;-144.99;nan;51985.44;5009100;28;19995;-75
2023/08/24 11:56:05;;;;;;;;;;;;;;;-144.99;nan;51979.31;5005563;28;19946;-73
2023/08/24 11:58:32;;;;;;;;;;;;;;;-144.99;nan;52024.16;5008190;28;19945;-75
2023/08/24 12:01:00;;;;;;;;;;;;;;;-144.99;nan;52048.63;5009274;28;19977;-72
2023/08/24 12:03:26;;;;;;;;;;;;;;;-144.99;nan;51995.63;5008559;28;20189;-75
2023/08/24 12:05:53;;;;;;;;;;;;;;;-144.99;nan;51999.69;5008506;28;20391;-73
2023/08/24 12:08:20;;;;;;;;;;;;;;;-144.99;nan;52003.78;5008341;28;19947;-73
2023/08/24 12:10:46;;;;;;;;;;;;;;;-144.99;nan;52044.53;5009576;28;19975;-73
2023/08/24 12:13:13;;;;;;;;;;;;;;;-144.99;nan;51983.41;5008417;28;19963;-73
2023/08/24 12:15:41;;;;;;;;;;;;;;;-144.99;nan;52036.38;5008825;28;19954;-72
2023/08/24 12:18:09;;;;;;;;;;;;;;;-144.99;nan;52024.16;5008612;28;19947;-73
2023/08/24 12:20:36;;;;;;;;;;;;;;;-144.99;nan;52046.56;5008712;28;19951;-74
2023/08/24 12:23:03;;;;;;;;;;;;;;;-144.99;nan;52024.16;4998693;28;20062;-74
2023/08/24 12:25:29;;;;;;;;;;;;;;;-144.99;nan;52003.78;5008938;28;20038;-74
2023/08/24 12:28:09;;;;;;;;;;;;;;;-144.99;nan;52024.16;5008992;28;20002;-74
2023/08/24 12:30:44;;;;;;;;;;;;;;;-144.99;nan;52042.50;5001747;28;19956;-73
2023/08/24 12:33:21;;;;;;;;;;;;;;;-144.99;nan;52016.00;5008642;28;19956;-75
2023/08/24 12:35:48;;;;;;;;;;;;;;;-144.99;nan;52026.19;5008250;28;20175;-75
2023/08/24 12:38:14;;;;;;;;;;;;;;;-144.99;nan;52062.88;5009232;28;19954;-75
2023/08/24 12:40:41;;;;;;;;;;;;;;;-144.99;nan;52024.16;5009177;28;19952;-75
2023/08/24 12:43:07;;;;;;;;;;;;;;;-144.99;nan;52056.78;5008666;28;19974;-75
2023/08/24 12:45:34;;;;;;;;;;;;;;;-144.99;nan;52079.19;5008502;28;19994;-73
2023/08/24 12:48:00;;;;;;;;;;;;;;;-144.99;nan;52089.38;5008585;28;19986;-75
2023/08/24 12:50:28;;;;;;;;;;;;;;;-144.99;nan;52077.16;5007947;28;20093;-76
2023/08/24 12:52:56;;;;;;;;;;;;;;;-144.99;nan;52066.97;5008405;28;20040;-75